Middlebury, VT

7:21 AM EST on December 20, 2014 (GMT -0500)
EastView | Change Station
CLOSE
Current Station
Personal Weather Station
Location: Middlebury, VT
Elevation: 390 ft
Nearby Weather Stations

Elev 390 ft 44.00 °N, 73.17 °W | Updated 12 minutes ago

Clear
Clear
7.8 °F
Feels Like 8 °F
N
0.0
Wind Variable Wind from SSW
Gusts 0.0 mph

Today
High -- | Low -- °F
--% Chance of Precip.
Yesterday
High -- | Low -- °F
Precip. -- in
7:23 AM 4:16 PM
Waning Crescent, 3% visible
Pressure 30.29 in
Visibility 10.0 miles
Clouds Clear
Windchill 8 °F
Dew Point 6 °F
Humidity 93%
Rainfall 0.00 in
Snow Depth Not available.
UV 0 out of 12
Pollen .10 out of 12
Air Quality Not available.
Flu Activity Not available.
METAR K6B0 201215Z AUTO 00000KT 10SM CLR M12/M12 A3029 RMK AO2 T11161118

More Conditions Fewer Conditions

Pressure 30.29 in
Visibility 10.0 miles
Clouds Clear
Windchill 8 °F
Dew Point 6 °F
Humidity 93%
Rainfall 0.00 in
Snow Depth Not available.
UV 0 out of 12
Pollen .10 out of 12
Air Quality Not available.
Flu Activity Not available.
METAR K6B0 201215Z AUTO 00000KT 10SM CLR M12/M12 A3029 RMK AO2 T11161118

More Conditions Fewer Conditions

10-Day Weather Forecast

Almanac

Astronomy

Dec. 20, 2014 Rise Set
Actual Time
Civil Twilight
Nautical Twilight
Astronomical Twilight
Moon
Length of Visible Light
Length of Day
Tomorrow will be .
, % of the Moon is Illuminated

Today's Extremes

State Highs State Lows

Community

WunderPhotos

Upload Photos

1,779,163 photos uploaded!

WunderBlogs® & News

Nearby

Air Quality

  Air Quality AQ Index Pollutant
Not available.

Snow Depth

Station Depth Elevation

Earthquake Activity

City Distance Mag. Time & Date
Minimum magnitude displayed is 2.5.

Coastal Water Temperatures

Place Temperature

Nearby Weather Stations